createdAt,value
2018-09-15T00:00:44.212Z,58.12
2018-09-15T00:03:11.659Z,58.07
2018-09-15T00:05:39.102Z,58.02
2018-09-15T00:08:06.496Z,58.05
2018-09-15T00:10:34.229Z,58.08
2018-09-15T00:13:01.749Z,57.95
2018-09-15T00:15:29.202Z,57.86
2018-09-15T00:17:56.659Z,58.00
2018-09-15T00:20:24.100Z,58.28
2018-09-15T00:22:51.630Z,58.72
2018-09-15T00:25:19.187Z,58.66
2018-09-15T00:27:46.701Z,58.24
2018-09-15T00:30:14.176Z,58.21
2018-09-15T00:32:41.583Z,58.21
2018-09-15T00:35:09.040Z,59.15
2018-09-15T00:37:36.572Z,59.95
2018-09-15T00:40:04.988Z,60.22
2018-09-15T00:42:32.509Z,59.98
2018-09-15T00:44:59.966Z,60.08
2018-09-15T00:47:27.430Z,60.02
2018-09-15T00:49:54.859Z,59.84
2018-09-15T00:52:22.463Z,59.76
2018-09-15T00:54:49.917Z,59.99
2018-09-15T00:57:17.335Z,59.80
2018-09-15T00:59:44.942Z,60.21
2018-09-15T01:02:12.386Z,60.81
2018-09-15T01:04:39.827Z,61.34
2018-09-15T01:07:07.504Z,61.60
2018-09-15T01:09:35.032Z,61.84
2018-09-15T01:12:03.258Z,61.93
2018-09-15T01:14:30.793Z,62.15
2018-09-15T01:16:58.248Z,62.29
2018-09-15T01:19:25.769Z,62.22
2018-09-15T01:21:53.223Z,62.38
2018-09-15T01:24:21.126Z,62.36
2018-09-15T01:26:48.555Z,62.39
2018-09-15T01:29:16.030Z,62.45
2018-09-15T01:31:43.512Z,62.45
2018-09-15T01:34:10.932Z,62.93
2018-09-15T01:36:38.427Z,63.02
2018-09-15T01:39:05.904Z,62.84
2018-09-15T01:41:33.306Z,62.66
2018-09-15T01:44:00.736Z,63.17
2018-09-15T01:46:28.411Z,62.81
2018-09-15T01:48:55.918Z,62.83
2018-09-15T01:51:23.350Z,62.87
2018-09-15T01:53:50.758Z,62.68
2018-09-15T01:56:18.254Z,62.29
2018-09-15T01:58:45.737Z,62.47
2018-09-15T02:01:13.162Z,62.67
2018-09-15T02:03:40.574Z,62.85
2018-09-15T02:06:08.031Z,62.70
2018-09-15T02:08:35.426Z,62.70
2018-09-15T02:11:03.213Z,62.94
2018-09-15T02:13:30.640Z,63.41
2018-09-15T02:15:58.085Z,64.03
2018-09-15T02:18:25.513Z,64.28
2018-09-15T02:20:53.427Z,64.48
2018-09-15T02:23:20.858Z,64.39
2018-09-15T02:25:48.321Z,64.57
2018-09-15T02:28:15.743Z,64.46
2018-09-15T02:30:43.169Z,64.54
2018-09-15T02:33:10.643Z,65.03
2018-09-15T02:35:38.119Z,65.90
2018-09-15T02:38:05.574Z,66.61
2018-09-15T02:40:33.065Z,66.50
2018-09-15T02:43:00.521Z,66.23
2018-09-15T02:45:27.947Z,66.01
2018-09-15T02:47:55.545Z,65.91
2018-09-15T02:50:23.619Z,66.01
2018-09-15T02:52:51.106Z,65.91
2018-09-15T02:55:18.584Z,65.83
2018-09-15T02:57:46.013Z,65.99
2018-09-15T03:00:13.611Z,66.14
2018-09-15T03:02:41.090Z,66.12
2018-09-15T03:05:08.752Z,66.15
2018-09-15T03:07:36.179Z,65.96
2018-09-15T03:10:03.704Z,65.87
2018-09-15T03:12:31.937Z,65.74
2018-09-15T03:14:59.377Z,65.49
2018-09-15T03:17:26.861Z,65.07
2018-09-15T03:19:54.561Z,64.86
2018-09-15T03:22:21.991Z,64.83
2018-09-15T03:24:49.399Z,64.89
2018-09-15T03:27:16.837Z,64.86
2018-09-15T03:29:44.273Z,64.73
2018-09-15T03:32:11.727Z,64.96
2018-09-15T03:34:39.247Z,65.17
2018-09-15T03:37:06.666Z,65.63
2018-09-15T03:39:34.139Z,66.08
2018-09-15T03:42:01.644Z,66.75
2018-09-15T03:44:29.073Z,66.83
2018-09-15T03:46:56.607Z,66.83
2018-09-15T03:49:24.068Z,67.02
2018-09-15T03:51:51.659Z,67.12
2018-09-15T03:54:19.148Z,66.84
2018-09-15T03:56:46.601Z,67.12
2018-09-15T03:59:14.007Z,67.60
2018-09-15T04:01:41.479Z,68.11
2018-09-15T04:04:08.882Z,68.77
2018-09-15T04:06:36.308Z,69.30
2018-09-15T04:09:03.771Z,69.29
2018-09-15T04:11:31.190Z,69.43
2018-09-15T04:13:58.598Z,69.42
2018-09-15T04:16:26.042Z,69.24
2018-09-15T04:18:53.504Z,69.05
2018-09-15T04:21:21.005Z,68.61
2018-09-15T04:23:48.487Z,68.55
2018-09-15T04:26:15.950Z,68.57
2018-09-15T04:28:43.457Z,68.32
2018-09-15T04:31:10.861Z,68.10
2018-09-15T04:33:38.320Z,67.87
2018-09-15T04:36:05.792Z,67.82
2018-09-15T04:38:33.272Z,67.80
2018-09-15T04:41:00.758Z,68.09
2018-09-15T04:43:28.269Z,68.03
2018-09-15T04:45:55.676Z,67.75
2018-09-15T04:48:23.148Z,67.37
2018-09-15T04:50:50.567Z,67.76
2018-09-15T04:53:17.966Z,68.10
2018-09-15T04:55:45.440Z,68.17
2018-09-15T04:58:13.427Z,67.97
2018-09-15T05:00:40.837Z,67.85
2018-09-15T05:03:08.392Z,67.89
2018-09-15T05:05:35.856Z,67.95
2018-09-15T05:08:03.524Z,67.92
2018-09-15T05:10:31.053Z,67.74
2018-09-15T05:12:58.593Z,67.66
2018-09-15T05:15:26.030Z,67.58
2018-09-15T05:17:53.523Z,67.74
2018-09-15T05:20:20.988Z,67.56
2018-09-15T05:22:48.643Z,67.55
2018-09-15T05:25:16.043Z,67.34
2018-09-15T05:27:43.583Z,67.48
2018-09-15T05:30:11.017Z,67.60
2018-09-15T05:32:38.438Z,67.52
2018-09-15T05:35:05.888Z,67.42
2018-09-15T05:37:33.375Z,67.24
2018-09-15T05:40:01.079Z,66.91
2018-09-15T05:42:28.464Z,65.79
2018-09-15T05:44:55.922Z,64.14
2018-09-15T05:47:23.344Z,62.44
2018-09-15T05:49:51.575Z,61.59
2018-09-15T05:52:19.034Z,60.22
2018-09-15T05:54:46.537Z,58.97
2018-09-15T05:57:14.119Z,57.52
2018-09-15T05:59:41.539Z,56.37
2018-09-15T06:02:09.029Z,55.75
2018-09-15T06:04:36.495Z,54.96
2018-09-15T06:07:03.965Z,54.00
2018-09-15T06:09:31.407Z,53.57
2018-09-15T06:11:58.818Z,52.72
2018-09-15T06:14:26.469Z,51.66
2018-09-15T06:16:53.886Z,51.22
2018-09-15T06:19:21.399Z,51.78
2018-09-15T06:21:48.832Z,51.42
2018-09-15T06:24:16.290Z,51.29
2018-09-15T06:26:43.704Z,50.78
2018-09-15T06:29:11.200Z,49.95
2018-09-15T06:31:38.222Z,49.00
2018-09-15T06:34:05.163Z,48.14
2018-09-15T06:36:32.170Z,48.32
2018-09-15T06:38:59.203Z,48.10
2018-09-15T06:41:26.266Z,47.99
2018-09-15T06:43:53.224Z,46.65
2018-09-15T06:46:20.204Z,45.38
2018-09-15T06:48:48.455Z,44.47
2018-09-15T06:51:16.022Z,44.07
2018-09-15T06:53:43.518Z,44.56
2018-09-15T06:56:10.492Z,43.92
2018-09-15T06:58:37.487Z,42.55
2018-09-15T07:01:04.516Z,41.30
2018-09-15T07:03:31.571Z,40.49
2018-09-15T07:05:58.645Z,40.20
2018-09-15T07:08:25.678Z,41.05
2018-09-15T07:10:52.652Z,40.53
2018-09-15T07:13:19.635Z,39.88
2018-09-15T07:15:46.678Z,39.04
2018-09-15T07:18:13.744Z,38.85
2018-09-15T07:20:40.796Z,38.19
2018-09-15T07:23:07.883Z,37.64
2018-09-15T07:25:34.837Z,37.00
2018-09-15T07:28:01.921Z,36.95
2018-09-15T07:30:28.991Z,37.60
2018-09-15T07:32:55.985Z,37.12
2018-09-15T07:35:23.484Z,36.03
2018-09-15T07:37:50.927Z,35.13
2018-09-15T07:40:18.455Z,34.22
2018-09-15T07:42:45.618Z,33.63
2018-09-15T07:45:12.572Z,33.83
2018-09-15T07:47:39.692Z,34.22
2018-09-15T07:50:06.888Z,33.87
2018-09-15T07:52:33.990Z,34.18
2018-09-15T07:55:01.356Z,35.05
2018-09-15T07:57:28.553Z,35.33
2018-09-15T07:59:55.706Z,34.73
2018-09-15T08:02:22.739Z,34.42
2018-09-15T08:04:49.774Z,33.93
2018-09-15T08:07:17.750Z,33.89
2018-09-15T08:09:45.382Z,34.68
2018-09-15T08:12:13.370Z,33.81
2018-09-15T08:14:41.409Z,34.49
2018-09-15T08:17:09.019Z,34.91
2018-09-15T08:19:36.922Z,35.11
2018-09-15T08:22:04.593Z,34.50
2018-09-15T08:24:31.667Z,34.45
2018-09-15T08:26:58.895Z,34.05
2018-09-15T08:29:26.429Z,33.01
2018-09-15T08:31:53.620Z,32.79
2018-09-15T08:34:20.717Z,32.99
2018-09-15T08:36:48.514Z,33.01
2018-09-15T08:39:16.660Z,32.81
2018-09-15T08:41:44.614Z,33.26
2018-09-15T08:44:12.247Z,33.85
2018-09-15T08:46:39.822Z,33.40
2018-09-15T08:49:07.837Z,32.94
2018-09-15T08:51:35.914Z,32.48
2018-09-15T08:54:03.905Z,32.96
2018-09-15T08:56:31.674Z,33.29
2018-09-15T08:58:59.752Z,33.52
2018-09-15T09:01:27.815Z,33.99
2018-09-15T09:03:56.090Z,34.32
2018-09-15T09:06:25.316Z,33.55
2018-09-15T09:08:53.806Z,33.29
2018-09-15T09:11:22.287Z,33.43
2018-09-15T09:13:50.824Z,34.47
2018-09-15T09:16:19.453Z,34.54
2018-09-15T09:18:47.959Z,34.55
2018-09-15T09:21:16.469Z,34.61
2018-09-15T09:23:44.908Z,34.48
2018-09-15T09:26:13.480Z,34.40
2018-09-15T09:28:42.073Z,34.21
2018-09-15T09:31:11.009Z,33.89
2018-09-15T09:33:39.253Z,34.32
2018-09-15T09:36:07.931Z,34.40
2018-09-15T09:38:36.465Z,33.81
2018-09-15T09:41:05.797Z,33.66
2018-09-15T09:43:34.606Z,33.10
2018-09-15T09:46:03.336Z,32.80
2018-09-15T09:48:32.014Z,33.14
2018-09-15T09:51:01.249Z,32.84
2018-09-15T09:53:30.372Z,33.41
2018-09-15T09:56:03.622Z,33.68
2018-09-15T09:58:32.045Z,33.85
2018-09-15T10:01:00.528Z,33.34
2018-09-15T10:03:29.058Z,33.10
2018-09-15T10:05:57.486Z,33.46
2018-09-15T10:08:26.370Z,33.64
2018-09-15T10:10:54.667Z,34.07
2018-09-15T10:13:23.138Z,34.54
2018-09-15T10:15:51.876Z,34.67
2018-09-15T10:18:20.591Z,34.57
2018-09-15T10:20:49.048Z,34.79
2018-09-15T10:23:17.509Z,35.11
2018-09-15T10:25:45.976Z,35.39
2018-09-15T10:28:14.484Z,35.97
2018-09-15T10:30:42.931Z,35.56
2018-09-15T10:33:11.451Z,35.25
2018-09-15T10:35:39.395Z,35.04
2018-09-15T10:38:07.949Z,35.01
2018-09-15T10:40:36.011Z,34.67
2018-09-15T10:43:03.665Z,35.10
2018-09-15T10:45:32.935Z,35.76
2018-09-15T10:48:01.480Z,35.61
2018-09-15T10:50:31.193Z,35.41
2018-09-15T10:52:59.343Z,35.68
2018-09-15T10:55:27.509Z,35.37
2018-09-15T10:57:56.007Z,34.24
2018-09-15T11:00:25.319Z,34.70
2018-09-15T11:02:54.260Z,34.60
2018-09-15T11:05:22.734Z,34.75
2018-09-15T11:07:51.120Z,35.42
2018-09-15T11:10:19.707Z,34.27
2018-09-15T11:12:48.137Z,34.08
2018-09-15T11:15:16.906Z,33.36
2018-09-15T11:17:46.113Z,32.44
2018-09-15T11:20:14.815Z,32.71
2018-09-15T11:22:43.230Z,32.17
2018-09-15T11:25:12.443Z,31.73
2018-09-15T11:27:40.858Z,32.33
2018-09-15T11:30:09.966Z,32.26
2018-09-15T11:32:38.483Z,32.48
2018-09-15T11:35:06.969Z,32.90
2018-09-15T11:37:35.618Z,33.72
2018-09-15T11:40:03.609Z,33.98
2018-09-15T11:42:32.163Z,32.39
2018-09-15T11:45:00.779Z,32.02
2018-09-15T11:47:29.330Z,31.18
2018-09-15T11:49:57.812Z,32.28
2018-09-15T11:52:26.383Z,33.24
2018-09-15T11:54:56.248Z,33.42
2018-09-15T11:57:24.897Z,33.20
2018-09-15T11:59:53.432Z,32.70
2018-09-15T12:02:21.888Z,31.50
2018-09-15T12:04:50.330Z,31.75
2018-09-15T12:07:18.805Z,32.04
2018-09-15T12:09:47.350Z,32.36
2018-09-15T12:12:15.820Z,33.07
2018-09-15T12:14:44.514Z,33.39
2018-09-15T12:17:12.932Z,33.45
2018-09-15T12:19:41.477Z,32.75
2018-09-15T12:22:10.124Z,32.25
2018-09-15T12:24:38.648Z,31.65
2018-09-15T12:27:06.576Z,30.91
2018-09-15T12:29:35.195Z,31.22
2018-09-15T12:32:03.642Z,30.89
2018-09-15T12:34:32.107Z,30.87
2018-09-15T12:37:01.013Z,30.65
2018-09-15T12:39:29.803Z,31.27
2018-09-15T12:41:58.824Z,30.82
2018-09-15T12:44:27.468Z,29.68
2018-09-15T12:46:56.159Z,30.91
2018-09-15T12:49:24.705Z,30.75
2018-09-15T12:51:53.142Z,30.01
2018-09-15T12:54:21.824Z,30.00
2018-09-15T12:56:50.283Z,30.43
2018-09-15T12:59:18.819Z,30.37
2018-09-15T13:01:47.293Z,29.97
2018-09-15T13:04:15.840Z,30.80
2018-09-15T13:06:44.223Z,30.57
2018-09-15T13:09:12.936Z,30.19
2018-09-15T13:11:40.919Z,30.24
2018-09-15T13:14:10.104Z,30.27
2018-09-15T13:16:38.753Z,29.68
2018-09-15T13:19:07.272Z,29.20
2018-09-15T13:21:35.722Z,29.85
2018-09-15T13:24:04.414Z,29.93
2018-09-15T13:26:32.886Z,29.52
2018-09-15T13:29:01.406Z,28.67
2018-09-15T13:31:29.576Z,28.33
2018-09-15T13:33:58.367Z,29.21
2018-09-15T13:36:26.839Z,29.47
2018-09-15T13:38:55.590Z,28.63
2018-09-15T13:41:24.183Z,29.14
2018-09-15T13:43:52.372Z,29.28
2018-09-15T13:46:20.977Z,28.82
2018-09-15T13:48:49.132Z,29.00
2018-09-15T13:51:17.739Z,28.51
2018-09-15T13:53:46.058Z,29.27
2018-09-15T13:56:14.661Z,29.49
2018-09-15T13:58:43.247Z,28.96
2018-09-15T14:01:11.472Z,28.59
2018-09-15T14:03:39.946Z,29.01
2018-09-15T14:06:08.433Z,29.29
2018-09-15T14:08:37.059Z,29.37
2018-09-15T14:11:05.612Z,29.51
2018-09-15T14:13:34.250Z,28.43
2018-09-15T14:16:02.243Z,26.98
2018-09-15T14:18:30.436Z,27.77
2018-09-15T14:20:58.870Z,28.74
2018-09-15T14:23:27.342Z,29.39
2018-09-15T14:25:55.825Z,29.53
2018-09-15T14:28:24.499Z,29.12
2018-09-15T14:30:52.616Z,29.58
2018-09-15T14:33:20.404Z,29.72
2018-09-15T14:35:48.941Z,29.73
2018-09-15T14:38:17.653Z,29.87
2018-09-15T14:40:46.518Z,29.69
2018-09-15T14:43:15.119Z,30.08
2018-09-15T14:45:43.697Z,29.99
2018-09-15T14:48:13.288Z,30.09
2018-09-15T14:50:41.900Z,29.89
2018-09-15T14:53:09.857Z,30.13
2018-09-15T14:55:38.460Z,30.37
2018-09-15T14:58:06.913Z,30.22
2018-09-15T15:00:35.441Z,30.56
2018-09-15T15:03:04.283Z,30.69
2018-09-15T15:05:32.749Z,30.52
2018-09-15T15:08:00.755Z,30.05
2018-09-15T15:10:29.309Z,29.90
2018-09-15T15:12:57.796Z,30.08
2018-09-15T15:15:26.340Z,30.02
2018-09-15T15:17:54.953Z,29.86
2018-09-15T15:20:24.165Z,29.94
2018-09-15T15:22:52.956Z,29.65
2018-09-15T15:25:21.472Z,30.02
2018-09-15T15:27:50.122Z,30.02
2018-09-15T15:30:18.784Z,30.15
2018-09-15T15:32:48.227Z,30.26
2018-09-15T15:35:16.838Z,30.40
2018-09-15T15:37:45.296Z,29.79
2018-09-15T15:40:13.957Z,30.04
2018-09-15T15:42:42.694Z,30.13
2018-09-15T15:45:11.769Z,30.13
2018-09-15T15:47:40.055Z,29.69
2018-09-15T15:50:08.327Z,29.76
2018-09-15T15:52:36.392Z,29.83
2018-09-15T15:55:04.778Z,29.67
2018-09-15T15:57:33.790Z,29.49
2018-09-15T16:00:03.395Z,29.15
2018-09-15T16:02:31.502Z,29.60
2018-09-15T16:04:59.618Z,30.07
2018-09-15T16:07:27.815Z,29.91
2018-09-15T16:09:56.583Z,29.64
2018-09-15T16:12:25.020Z,29.91
2018-09-15T16:14:53.537Z,29.95
2018-09-15T16:17:22.028Z,30.28
2018-09-15T16:19:51.538Z,29.96
2018-09-15T16:22:20.020Z,30.25
2018-09-15T16:24:48.589Z,30.82
2018-09-15T16:27:17.158Z,30.61
2018-09-15T16:29:45.371Z,30.74
2018-09-15T16:32:13.536Z,30.85
2018-09-15T16:34:41.840Z,31.06
2018-09-15T16:37:10.299Z,30.89
2018-09-15T16:39:39.178Z,31.36
2018-09-15T16:42:07.625Z,31.57
2018-09-15T16:44:36.151Z,31.27
2018-09-15T16:47:05.011Z,31.00
2018-09-15T16:49:33.500Z,31.09
2018-09-15T16:52:02.199Z,31.15
2018-09-15T16:54:30.362Z,31.22
2018-09-15T16:56:58.612Z,31.46
2018-09-15T16:59:26.734Z,31.55
2018-09-15T17:01:54.770Z,31.96
2018-09-15T17:04:22.856Z,32.86
2018-09-15T17:06:50.927Z,32.70
2018-09-15T17:09:18.857Z,33.00
2018-09-15T17:11:46.826Z,33.15
2018-09-15T17:14:14.999Z,33.09
2018-09-15T17:16:43.182Z,33.42
2018-09-15T17:19:11.914Z,33.49
2018-09-15T17:21:40.124Z,33.79
2018-09-15T17:24:08.385Z,34.13
2018-09-15T17:26:37.337Z,34.73
2018-09-15T17:29:06.363Z,35.17
2018-09-15T17:31:35.005Z,35.90
2018-09-15T17:34:03.412Z,36.21
2018-09-15T17:36:32.334Z,36.98
2018-09-15T17:39:00.495Z,37.65
2018-09-15T17:41:28.415Z,38.15
2018-09-15T17:43:56.708Z,39.09
2018-09-15T17:46:26.287Z,39.95
2018-09-15T17:48:55.111Z,40.51
2018-09-15T17:51:23.184Z,40.89
2018-09-15T17:53:51.576Z,41.31
2018-09-15T17:56:20.225Z,41.60
2018-09-15T17:58:48.275Z,42.11
2018-09-15T18:01:16.767Z,42.32
2018-09-15T18:03:44.793Z,43.07
2018-09-15T18:06:13.372Z,43.90
2018-09-15T18:08:41.811Z,44.33
2018-09-15T18:11:10.293Z,45.31
2018-09-15T18:13:38.320Z,46.37
2018-09-15T18:16:06.472Z,47.11
2018-09-15T18:18:34.443Z,47.49
2018-09-15T18:21:02.629Z,47.78
2018-09-15T18:23:30.988Z,47.19
2018-09-15T18:25:59.083Z,47.56
2018-09-15T18:28:27.109Z,47.77
2018-09-15T18:30:55.112Z,48.27
2018-09-15T18:33:23.388Z,48.45
2018-09-15T18:35:51.773Z,47.87
2018-09-15T18:38:19.962Z,46.86
2018-09-15T18:40:48.056Z,46.39
2018-09-15T18:43:16.294Z,46.57
2018-09-15T18:45:46.002Z,45.75
2018-09-15T18:48:14.068Z,44.93
2018-09-15T18:50:42.397Z,44.70
2018-09-15T18:53:10.723Z,43.79
2018-09-15T18:55:39.309Z,43.42
2018-09-15T18:58:08.021Z,43.15
2018-09-15T19:00:36.657Z,43.13
2018-09-15T19:03:05.328Z,43.17
2018-09-15T19:05:33.765Z,43.26
2018-09-15T19:08:02.301Z,43.26
2018-09-15T19:10:30.786Z,43.31
2018-09-15T19:12:59.672Z,43.30
2018-09-15T19:15:27.659Z,43.44
2018-09-15T19:17:55.516Z,43.56
2018-09-15T19:20:23.737Z,43.77
2018-09-15T19:22:51.987Z,43.90
2018-09-15T19:25:19.993Z,44.05
2018-09-15T19:27:48.402Z,44.35
2018-09-15T19:30:16.786Z,44.32
2018-09-15T19:32:45.349Z,44.31
2018-09-15T19:35:14.689Z,44.39
2018-09-15T19:37:43.269Z,44.31
2018-09-15T19:40:11.743Z,44.42
2018-09-15T19:42:41.771Z,44.44
2018-09-15T19:45:10.352Z,44.50
2018-09-15T19:47:39.877Z,44.75
2018-09-15T19:50:08.325Z,44.73
2018-09-15T19:52:37.373Z,44.78
2018-09-15T19:55:06.190Z,44.84
2018-09-15T19:57:34.829Z,45.03
2018-09-15T20:00:03.766Z,44.92
2018-09-15T20:02:32.413Z,45.19
2018-09-15T20:05:01.021Z,45.50
2018-09-15T20:07:29.742Z,45.58
2018-09-15T20:09:58.264Z,45.92
2018-09-15T20:12:26.725Z,45.93
2018-09-15T20:14:55.212Z,46.16
2018-09-15T20:17:23.268Z,46.28
2018-09-15T20:19:51.334Z,46.36
2018-09-15T20:22:20.666Z,46.48
2018-09-15T20:24:49.338Z,46.81
2018-09-15T20:27:18.036Z,47.24
2018-09-15T20:29:46.549Z,47.32
2018-09-15T20:32:15.369Z,47.42
2018-09-15T20:34:43.865Z,47.68
2018-09-15T20:37:12.374Z,47.67
2018-09-15T20:39:41.054Z,48.02
2018-09-15T20:42:09.631Z,48.40
2018-09-15T20:44:37.918Z,48.66
2018-09-15T20:47:06.477Z,48.94
2018-09-15T20:49:35.143Z,49.33
2018-09-15T20:52:03.846Z,49.78
2018-09-15T20:54:32.516Z,50.62
2018-09-15T20:57:01.254Z,51.63
2018-09-15T20:59:31.018Z,51.22
2018-09-15T21:01:59.803Z,51.16
2018-09-15T21:04:28.496Z,51.13
2018-09-15T21:06:57.013Z,51.18
2018-09-15T21:09:25.683Z,51.32
2018-09-15T21:11:54.147Z,51.44
2018-09-15T21:14:22.668Z,51.54
2018-09-15T21:16:51.113Z,51.69
2018-09-15T21:19:19.916Z,51.34
2018-09-15T21:21:48.483Z,51.81
2018-09-15T21:24:16.963Z,52.05
2018-09-15T21:26:45.455Z,51.80
2018-09-15T21:29:14.061Z,51.63
2018-09-15T21:31:42.842Z,51.58
2018-09-15T21:34:11.371Z,51.54
2018-09-15T21:36:39.872Z,51.62
2018-09-15T21:39:08.755Z,51.54
2018-09-15T21:41:42.992Z,51.62
2018-09-15T21:44:11.518Z,51.58
2018-09-15T21:46:40.827Z,51.58
2018-09-15T21:49:09.477Z,51.50
2018-09-15T21:51:37.976Z,51.55
2018-09-15T21:54:06.723Z,51.65
2018-09-15T21:56:35.408Z,51.85
2018-09-15T21:59:03.842Z,51.63
2018-09-15T22:01:32.277Z,51.53
2018-09-15T22:04:00.786Z,51.47
2018-09-15T22:06:29.481Z,51.67
2018-09-15T22:08:58.109Z,51.74
2018-09-15T22:11:25.993Z,51.65
2018-09-15T22:13:54.229Z,51.60
2018-09-15T22:16:22.241Z,51.66
2018-09-15T22:18:51.124Z,51.82
2018-09-15T22:21:19.377Z,51.89
2018-09-15T22:23:47.476Z,52.01
2018-09-15T22:26:16.732Z,52.09
2018-09-15T22:28:44.442Z,52.17
2018-09-15T22:31:12.280Z,52.23
2018-09-15T22:33:40.000Z,52.39
2018-09-15T22:36:07.475Z,52.86
2018-09-15T22:38:34.938Z,53.57
2018-09-15T22:41:02.345Z,53.77
2018-09-15T22:43:29.885Z,53.87
2018-09-15T22:45:57.314Z,54.20
2018-09-15T22:48:24.784Z,54.59
2018-09-15T22:50:52.271Z,54.54
2018-09-15T22:53:19.676Z,54.69
2018-09-15T22:55:47.122Z,55.02
2018-09-15T22:58:14.542Z,54.95
2018-09-15T23:00:41.979Z,54.93
2018-09-15T23:03:09.525Z,55.02
2018-09-15T23:05:46.313Z,55.47
2018-09-15T23:08:13.893Z,55.32
2018-09-15T23:10:41.343Z,55.82
2018-09-15T23:13:08.778Z,56.15
2018-09-15T23:15:36.223Z,56.40
2018-09-15T23:18:03.674Z,56.70
2018-09-15T23:20:32.395Z,56.93
2018-09-15T23:22:59.800Z,56.93
2018-09-15T23:25:27.575Z,57.19
2018-09-15T23:27:55.000Z,57.09
2018-09-15T23:30:22.638Z,57.01
2018-09-15T23:32:50.105Z,56.99
2018-09-15T23:35:17.685Z,56.94
2018-09-15T23:37:45.179Z,57.00
2018-09-15T23:40:12.637Z,56.73
2018-09-15T23:42:40.613Z,56.77
2018-09-15T23:45:08.047Z,57.25
2018-09-15T23:47:38.482Z,57.71
2018-09-15T23:50:05.892Z,58.04
2018-09-15T23:52:41.950Z,57.85
2018-09-15T23:55:10.131Z,57.44
2018-09-15T23:57:37.541Z,57.37
